Newhebron, Mississippi
Current Conditions -  °F | °C
As of 2:54 AM on Thursday 18 Dec 2014 (Local Time) from KJAN Reporting Station
Overcast Overcast  
Wind Chill: 43°   Ceiling: 8000
Heat Index: 45°   Visibility: 10mi
Dew Point: 40°   Wind: 5mph
Humidity: 82%   Direction: 340°NNW
Pressure: 30.22"   Gusts: NA
Location:  31.73°N, 89.98°W
Report Text: KJAN 180854Z AUTO 34004KT 10SM BKN080 OVC100 07/04 A3022 RMK AO2 PRESRR SLP231 T00720044 53001
Loading
Personal Weather Stations






























Interactive Weather Map New forecast layout! Learn more

10-Day Weather Forecast

Advertisements
Track Severe Weather on mobile